createdAt,value
2023-11-04T00:00:56.051Z,1.88
2023-11-04T00:02:07.863Z,1.88
2023-11-04T00:03:11.652Z,1.67
2023-11-04T00:04:13.777Z,1.85
2023-11-04T00:05:16.910Z,1.83
2023-11-04T00:06:19.955Z,1.98
2023-11-04T00:07:23.297Z,2.10
2023-11-04T00:08:25.142Z,1.80
2023-11-04T00:09:37.884Z,2.10
2023-11-04T00:10:50.902Z,2.28
2023-11-04T00:11:53.716Z,2.20
2023-11-04T00:12:55.655Z,2.47
2023-11-04T00:13:58.496Z,2.00
2023-11-04T00:15:00.335Z,1.88
2023-11-04T00:16:07.161Z,1.70
2023-11-04T00:17:10.399Z,1.65
2023-11-04T00:18:13.626Z,1.42
2023-11-04T00:19:15.715Z,1.80
2023-11-04T00:20:18.628Z,1.80
2023-11-04T00:21:20.542Z,2.00
2023-11-04T00:22:22.407Z,2.22
2023-11-04T00:23:25.230Z,2.20
2023-11-04T00:24:27.106Z,2.30
2023-11-04T00:25:29.914Z,2.08
2023-11-04T00:26:31.806Z,1.70
2023-11-04T00:27:35.158Z,2.03
2023-11-04T00:28:37.259Z,1.77
2023-11-04T00:29:40.124Z,1.95
2023-11-04T00:30:42.131Z,1.90
2023-11-04T00:31:44.964Z,2.10
2023-11-04T00:32:49.068Z,2.13
2023-11-04T00:33:51.918Z,1.90
2023-11-04T00:34:53.820Z,2.10
2023-11-04T00:35:55.881Z,1.80
2023-11-04T00:36:58.788Z,2.17
2023-11-04T00:38:00.619Z,1.75
2023-11-04T00:39:03.672Z,1.92
2023-11-04T00:40:07.562Z,1.85
2023-11-04T00:41:11.151Z,1.77
2023-11-04T00:42:13.086Z,2.08
2023-11-04T00:43:15.874Z,2.30
2023-11-04T00:44:17.743Z,2.30
2023-11-04T00:45:20.694Z,2.20
2023-11-04T00:46:22.728Z,2.10
2023-11-04T00:47:24.856Z,2.20
2023-11-04T00:48:29.073Z,1.77
2023-11-04T00:49:31.002Z,1.92
2023-11-04T00:50:33.857Z,1.98
2023-11-04T00:51:37.488Z,1.90
2023-11-04T00:52:40.652Z,1.95
2023-11-04T00:53:42.514Z,1.73
2023-11-04T00:54:45.399Z,2.15
2023-11-04T00:55:47.958Z,2.10
2023-11-04T00:56:51.029Z,1.90
2023-11-04T00:57:52.946Z,2.00
2023-11-04T00:58:55.767Z,1.95
2023-11-04T00:59:57.654Z,2.10
2023-11-04T01:01:00.498Z,2.00
2023-11-04T01:02:02.784Z,1.80
2023-11-04T01:03:05.611Z,1.73
2023-11-04T01:04:08.916Z,2.20
2023-11-04T01:05:12.342Z,2.00
2023-11-04T01:06:15.207Z,1.80
2023-11-04T01:07:17.183Z,1.77
2023-11-04T01:08:20.016Z,1.60
2023-11-04T01:09:22.534Z,2.15
2023-11-04T01:10:25.460Z,1.80
2023-11-04T01:11:27.417Z,1.80
2023-11-04T01:12:30.326Z,1.90
2023-11-04T01:13:32.251Z,2.40
2023-11-04T01:14:36.487Z,1.77
2023-11-04T01:15:38.474Z,2.13
2023-11-04T01:16:41.462Z,1.80
2023-11-04T01:17:43.408Z,2.10
2023-11-04T01:18:46.713Z,2.30
2023-11-04T01:19:50.046Z,2.33
2023-11-04T01:20:52.912Z,2.10
2023-11-04T01:21:54.761Z,2.20
2023-11-04T01:22:57.675Z,2.50
2023-11-04T01:23:59.490Z,2.47
2023-11-04T01:25:02.286Z,2.28
2023-11-04T01:26:04.794Z,2.20
2023-11-04T01:27:10.206Z,1.90
2023-11-04T01:28:12.171Z,1.77
2023-11-04T01:29:15.046Z,1.63
2023-11-04T01:30:17.078Z,1.88
2023-11-04T01:31:19.994Z,1.80
2023-11-04T01:32:21.835Z,2.03
2023-11-04T01:33:27.044Z,1.80
2023-11-04T01:34:29.106Z,1.80
2023-11-04T01:35:33.491Z,1.60
2023-11-04T01:36:35.740Z,1.55
2023-11-04T01:37:38.526Z,1.88
2023-11-04T01:38:40.418Z,2.00
2023-11-04T01:39:43.241Z,1.67
2023-11-04T01:40:49.090Z,1.80
2023-11-04T01:41:51.945Z,1.70
2023-11-04T01:42:54.211Z,1.83
2023-11-04T01:43:57.055Z,1.77
2023-11-04T01:44:58.888Z,1.73
2023-11-04T01:46:19.444Z,1.73
2023-11-04T01:47:21.353Z,1.90
2023-11-04T01:48:24.274Z,1.80
2023-11-04T01:49:26.794Z,1.90
2023-11-04T01:50:29.600Z,1.83
2023-11-04T01:51:33.069Z,1.48
2023-11-04T01:52:38.755Z,2.00
2023-11-04T01:53:41.821Z,1.90
2023-11-04T01:54:44.807Z,1.90
2023-11-04T01:55:46.878Z,1.65
2023-11-04T01:56:50.195Z,1.67
2023-11-04T01:57:52.330Z,1.70
2023-11-04T01:58:56.391Z,2.00
2023-11-04T01:59:58.610Z,1.60
2023-11-04T02:01:02.032Z,1.65
2023-11-04T02:02:04.842Z,1.90
2023-11-04T02:03:07.740Z,1.55
2023-11-04T02:04:09.739Z,1.67
2023-11-04T02:05:13.108Z,1.40
2023-11-04T02:06:15.840Z,1.80
2023-11-04T02:07:20.028Z,1.70
2023-11-04T02:08:21.936Z,1.75
2023-11-04T02:09:24.769Z,1.67
2023-11-04T02:10:26.810Z,1.77
2023-11-04T02:11:31.714Z,1.80
2023-11-04T02:12:33.696Z,1.77
2023-11-04T02:13:36.617Z,1.70
2023-11-04T02:14:39.692Z,1.90
2023-11-04T02:15:42.622Z,1.80
2023-11-04T02:16:44.519Z,1.80
2023-11-04T02:17:47.386Z,1.90
2023-11-04T02:18:49.327Z,1.83
2023-11-04T02:19:53.196Z,1.80
2023-11-04T02:20:58.679Z,1.90
2023-11-04T02:22:01.491Z,1.90
2023-11-04T02:23:03.656Z,1.80
2023-11-04T02:24:07.191Z,1.80
2023-11-04T02:25:09.139Z,2.08
2023-11-04T02:26:12.039Z,1.80
2023-11-04T02:27:13.941Z,2.22
2023-11-04T02:28:17.106Z,2.00
2023-11-04T02:29:19.016Z,2.05
2023-11-04T02:30:22.148Z,1.85
2023-11-04T02:31:24.257Z,2.20
2023-11-04T02:32:27.149Z,2.03
2023-11-04T02:33:29.017Z,1.90
2023-11-04T02:34:32.009Z,1.80
2023-11-04T02:35:33.944Z,2.08
2023-11-04T02:36:38.142Z,1.83
2023-11-04T02:37:39.958Z,2.00
2023-11-04T02:38:42.806Z,1.60
2023-11-04T02:39:45.431Z,2.03
2023-11-04T02:40:48.515Z,2.00
2023-11-04T02:42:19.471Z,2.30
2023-11-04T02:43:22.439Z,1.70
2023-11-04T02:44:24.373Z,2.17
2023-11-04T02:45:27.275Z,1.90
2023-11-04T02:46:29.160Z,1.63
2023-11-04T02:47:32.194Z,1.70
2023-11-04T02:48:34.417Z,1.85
2023-11-04T02:49:37.406Z,1.80
2023-11-04T02:50:39.285Z,1.60
2023-11-04T02:51:43.466Z,1.60
2023-11-04T02:52:45.358Z,1.70
2023-11-04T02:53:48.243Z,2.00
2023-11-04T02:54:50.425Z,1.70
2023-11-04T02:55:53.280Z,1.83
2023-11-04T02:56:55.143Z,1.80
2023-11-04T02:57:58.164Z,1.70
2023-11-04T02:59:00.170Z,2.00
2023-11-04T03:00:02.123Z,1.70
2023-11-04T03:01:05.443Z,1.73
2023-11-04T03:02:07.324Z,1.77
2023-11-04T03:03:10.890Z,1.60
2023-11-04T03:04:14.143Z,1.70
2023-11-04T03:05:27.485Z,1.65
2023-11-04T03:06:34.582Z,1.63
2023-11-04T03:07:38.856Z,1.60
2023-11-04T03:08:40.801Z,1.60
2023-11-04T03:09:43.860Z,1.70
2023-11-04T03:10:45.821Z,1.55
2023-11-04T03:11:48.899Z,2.67
2023-11-04T03:12:50.962Z,1.42
2023-11-04T03:13:54.422Z,1.70
2023-11-04T03:14:56.754Z,1.67
2023-11-04T03:15:59.697Z,1.80
2023-11-04T03:17:01.642Z,1.80
2023-11-04T03:18:04.632Z,1.83
2023-11-04T03:19:06.674Z,1.85
2023-11-04T03:20:10.924Z,1.60
2023-11-04T03:21:13.141Z,1.60
2023-11-04T03:22:16.101Z,2.03
2023-11-04T03:23:19.492Z,1.92
2023-11-04T03:24:21.561Z,1.70
2023-11-04T03:25:24.433Z,1.85
2023-11-04T03:26:26.338Z,1.60
2023-11-04T03:27:29.423Z,1.77
2023-11-04T03:28:31.372Z,1.50
2023-11-04T03:29:33.412Z,1.50
2023-11-04T03:30:37.018Z,1.88
2023-11-04T03:31:39.098Z,1.75
2023-11-04T03:32:42.457Z,1.80
2023-11-04T03:33:45.191Z,1.80
2023-11-04T03:34:48.205Z,1.60
2023-11-04T03:35:50.629Z,1.90
2023-11-04T03:36:52.621Z,1.73
2023-11-04T03:37:55.647Z,1.75
2023-11-04T03:38:59.740Z,1.80
2023-11-04T03:40:01.641Z,1.65
2023-11-04T03:41:04.980Z,1.70
2023-11-04T03:42:08.404Z,1.90
2023-11-04T03:43:11.298Z,1.60
2023-11-04T03:44:13.382Z,1.80
2023-11-04T03:45:15.821Z,1.70
2023-11-04T03:46:20.167Z,1.45
2023-11-04T03:47:22.221Z,1.40
2023-11-04T03:48:25.405Z,1.40
2023-11-04T03:49:27.528Z,1.60
2023-11-04T03:50:30.387Z,1.40
2023-11-04T03:51:32.249Z,1.67
2023-11-04T03:52:35.093Z,1.70
2023-11-04T03:53:37.931Z,1.58
2023-11-04T03:54:42.325Z,1.70
2023-11-04T03:55:44.308Z,1.80
2023-11-04T03:56:46.159Z,1.70
2023-11-04T03:57:49.157Z,1.77
2023-11-04T03:58:51.288Z,1.77
2023-11-04T03:59:54.111Z,1.50
2023-11-04T04:00:56.096Z,1.70
2023-11-04T04:01:58.927Z,1.90
2023-11-04T04:03:01.575Z,2.10
2023-11-04T04:04:03.583Z,1.80
2023-11-04T04:05:07.053Z,1.70
2023-11-04T04:06:09.307Z,1.70
2023-11-04T04:07:12.358Z,1.75
2023-11-04T04:08:14.396Z,1.70
2023-11-04T04:09:17.220Z,1.67
2023-11-04T04:10:20.444Z,1.70
2023-11-04T04:11:24.168Z,1.70
2023-11-04T04:12:26.270Z,1.90
2023-11-04T04:13:29.104Z,2.00
2023-11-04T04:14:30.971Z,1.88
2023-11-04T04:15:33.808Z,1.85
2023-11-04T04:16:36.522Z,1.77
2023-11-04T04:17:38.539Z,1.83
2023-11-04T04:18:41.621Z,2.17
2023-11-04T04:19:43.729Z,2.00
2023-11-04T04:20:46.085Z,1.75
2023-11-04T04:21:49.131Z,1.90
2023-11-04T04:22:51.136Z,1.90
2023-11-04T04:23:54.207Z,1.70
2023-11-04T04:24:56.197Z,2.20
2023-11-04T04:26:00.780Z,2.00
2023-11-04T04:27:02.656Z,1.88
2023-11-04T04:28:05.882Z,2.10
2023-11-04T04:29:08.877Z,1.80
2023-11-04T04:30:12.201Z,1.67
2023-11-04T04:31:15.392Z,2.17
2023-11-04T04:32:18.254Z,2.47
2023-11-04T04:33:20.442Z,2.25
2023-11-04T04:34:23.814Z,2.33
2023-11-04T04:35:25.633Z,2.03
2023-11-04T04:36:28.537Z,2.00
2023-11-04T04:37:30.483Z,2.47
2023-11-04T04:38:32.310Z,2.20
2023-11-04T04:39:35.343Z,1.90
2023-11-04T04:40:38.947Z,2.08
2023-11-04T04:41:43.284Z,2.35
2023-11-04T04:42:45.166Z,1.70
2023-11-04T04:43:48.055Z,1.83
2023-11-04T04:44:49.972Z,1.77
2023-11-04T04:45:51.843Z,1.92
2023-11-04T04:46:56.869Z,1.58
2023-11-04T04:47:59.182Z,1.75
2023-11-04T04:49:02.047Z,2.20
2023-11-04T04:50:05.752Z,1.90
2023-11-04T04:51:08.615Z,2.08
2023-11-04T04:52:11.417Z,1.98
2023-11-04T04:53:16.107Z,1.95
2023-11-04T04:54:18.923Z,2.13
2023-11-04T04:55:21.653Z,2.10
2023-11-04T04:56:25.177Z,1.90
2023-11-04T04:57:28.393Z,2.38
2023-11-04T04:58:31.242Z,2.65
2023-11-04T04:59:33.640Z,2.67
2023-11-04T05:00:36.467Z,2.40
2023-11-04T05:01:38.993Z,2.50
2023-11-04T05:02:41.889Z,2.20
2023-11-04T05:03:43.953Z,2.30
2023-11-04T05:04:47.042Z,2.22
2023-11-04T05:05:48.949Z,2.20
2023-11-04T05:06:51.906Z,2.45
2023-11-04T05:07:53.795Z,2.00
2023-11-04T05:08:56.903Z,2.13
2023-11-04T05:09:58.854Z,2.30
2023-11-04T05:11:01.827Z,2.13
2023-11-04T05:12:04.043Z,2.25
2023-11-04T05:13:08.197Z,1.98
2023-11-04T05:14:10.089Z,2.10
2023-11-04T05:15:13.573Z,2.00
2023-11-04T05:16:15.465Z,2.10
2023-11-04T05:17:18.283Z,2.00
2023-11-04T05:18:20.180Z,2.10
2023-11-04T05:19:23.167Z,2.03
2023-11-04T05:20:25.051Z,1.80
2023-11-04T05:21:27.972Z,1.85
2023-11-04T05:22:29.782Z,2.05
2023-11-04T05:23:33.735Z,2.10
2023-11-04T05:24:35.855Z,2.00
2023-11-04T05:25:38.807Z,1.85
2023-11-04T05:26:40.978Z,1.90
2023-11-04T05:27:42.886Z,1.70
2023-11-04T05:28:47.100Z,2.00
2023-11-04T05:29:48.938Z,1.95
2023-11-04T05:30:51.801Z,2.20
2023-11-04T05:31:53.642Z,1.95
2023-11-04T05:32:57.564Z,2.00
2023-11-04T05:34:00.606Z,2.15
2023-11-04T05:35:03.174Z,1.92
2023-11-04T05:36:07.037Z,1.92
2023-11-04T05:37:08.929Z,1.75
2023-11-04T05:38:12.143Z,1.90
2023-11-04T05:39:13.972Z,2.22
2023-11-04T05:40:17.084Z,2.17
2023-11-04T05:41:19.244Z,2.05
2023-11-04T05:42:24.599Z,1.90
2023-11-04T05:43:26.896Z,1.95
2023-11-04T05:44:31.051Z,2.05
2023-11-04T05:45:32.961Z,2.15
2023-11-04T05:46:36.450Z,2.22
2023-11-04T05:47:38.337Z,2.08
2023-11-04T05:48:41.233Z,2.17
2023-11-04T05:49:43.148Z,2.53
2023-11-04T05:50:45.259Z,1.90
2023-11-04T05:51:48.117Z,2.15
2023-11-04T05:52:51.064Z,2.55
2023-11-04T05:53:54.075Z,2.70
2023-11-04T05:54:55.935Z,2.35
2023-11-04T05:55:58.863Z,2.55
2023-11-04T05:57:00.670Z,2.30
2023-11-04T05:58:03.467Z,2.30
2023-11-04T05:59:05.529Z,2.63
2023-11-04T06:00:12.703Z,2.47
2023-11-04T06:01:14.809Z,2.92
2023-11-04T06:02:17.664Z,2.75
2023-11-04T06:03:19.502Z,2.97
2023-11-04T06:04:22.426Z,3.08
2023-11-04T06:05:24.968Z,2.88
2023-11-04T06:06:27.896Z,2.83
2023-11-04T06:07:30.353Z,2.70
2023-11-04T06:08:36.950Z,2.80
2023-11-04T06:09:39.817Z,2.67
2023-11-04T06:10:41.676Z,3.00
2023-11-04T06:11:44.826Z,3.13
2023-11-04T06:12:46.682Z,2.90
2023-11-04T06:13:49.500Z,3.13
2023-11-04T06:14:51.327Z,3.03
2023-11-04T06:15:55.517Z,2.97
2023-11-04T06:16:57.510Z,2.80
2023-11-04T06:18:00.714Z,3.10
2023-11-04T06:19:02.757Z,2.55
2023-11-04T06:20:07.260Z,2.60
2023-11-04T06:21:09.157Z,3.05
2023-11-04T06:22:12.548Z,2.70
2023-11-04T06:23:14.381Z,2.83
2023-11-04T06:24:17.397Z,2.83
2023-11-04T06:25:19.737Z,3.00
2023-11-04T06:26:23.247Z,2.20
2023-11-04T06:27:25.218Z,2.65
2023-11-04T06:28:29.378Z,2.58
2023-11-04T06:29:31.242Z,2.50
2023-11-04T06:30:34.864Z,2.80
2023-11-04T06:31:38.045Z,2.92
2023-11-04T06:32:41.090Z,2.95
2023-11-04T06:33:42.980Z,3.13
2023-11-04T06:34:45.850Z,3.22
2023-11-04T06:35:47.666Z,3.40
2023-11-04T06:36:52.423Z,3.30
2023-11-04T06:37:54.270Z,3.75
2023-11-04T06:38:56.068Z,3.83
2023-11-04T06:39:59.061Z,3.30
2023-11-04T06:41:01.294Z,3.60
2023-11-04T06:42:04.188Z,3.00
2023-11-04T06:43:06.152Z,2.75
2023-11-04T06:44:09.032Z,2.65
2023-11-04T06:45:11.258Z,2.47
2023-11-04T06:46:14.184Z,2.55
2023-11-04T06:47:17.621Z,2.95
2023-11-04T06:48:20.548Z,2.65
2023-11-04T06:49:23.455Z,2.67
2023-11-04T06:50:26.274Z,2.83
2023-11-04T06:51:28.202Z,2.97
2023-11-04T06:52:31.255Z,2.30
2023-11-04T06:53:33.184Z,2.95
2023-11-04T06:54:34.996Z,2.50
2023-11-04T06:55:37.881Z,2.55
2023-11-04T06:56:39.711Z,2.40
2023-11-04T06:57:42.527Z,2.75
2023-11-04T06:58:44.441Z,2.80
2023-11-04T06:59:47.263Z,2.78
2023-11-04T07:00:49.892Z,3.20
2023-11-04T07:01:51.865Z,3.25
2023-11-04T07:02:56.105Z,3.45
2023-11-04T07:03:58.147Z,3.50
2023-11-04T07:05:01.176Z,3.08
2023-11-04T07:06:03.271Z,3.33
2023-11-04T07:07:06.316Z,3.60
2023-11-04T07:08:08.222Z,3.08
2023-11-04T07:09:11.702Z,3.28
2023-11-04T07:10:13.597Z,3.17
2023-11-04T07:11:17.723Z,3.10
2023-11-04T07:12:19.718Z,3.30
2023-11-04T07:13:23.024Z,3.20
2023-11-04T07:14:25.437Z,3.25
2023-11-04T07:15:28.298Z,2.95
2023-11-04T07:16:30.369Z,4.35
2023-11-04T07:17:33.276Z,4.28
2023-11-04T07:18:37.107Z,3.90
2023-11-04T07:19:40.196Z,3.20
2023-11-04T07:20:42.347Z,3.22
2023-11-04T07:21:46.896Z,2.88
2023-11-04T07:22:48.786Z,3.25
2023-11-04T07:23:51.608Z,3.35
2023-11-04T07:24:53.551Z,2.70
2023-11-04T07:25:56.454Z,2.80
2023-11-04T07:26:58.332Z,2.50
2023-11-04T07:28:01.174Z,2.60
2023-11-04T07:29:03.178Z,2.50
2023-11-04T07:30:05.497Z,2.08
2023-11-04T07:31:08.371Z,2.47
2023-11-04T07:32:11.406Z,2.72
2023-11-04T07:33:20.667Z,2.45
2023-11-04T07:34:23.982Z,3.03
2023-11-04T07:35:26.851Z,2.25
2023-11-04T07:36:28.759Z,2.70
2023-11-04T07:37:31.675Z,2.63
2023-11-04T07:38:34.058Z,2.72
2023-11-04T07:39:40.238Z,2.30
2023-11-04T07:40:43.619Z,2.50
2023-11-04T07:41:46.396Z,2.47
2023-11-04T07:42:48.319Z,2.55
2023-11-04T07:44:03.457Z,2.17
2023-11-04T07:45:06.468Z,2.53
2023-11-04T07:46:09.428Z,3.38
2023-11-04T07:47:11.250Z,3.13
2023-11-04T07:48:14.317Z,3.90
2023-11-04T07:49:16.240Z,5.00
2023-11-04T07:50:20.623Z,4.85
2023-11-04T07:51:23.664Z,5.28
2023-11-04T07:52:26.602Z,5.03
2023-11-04T07:53:28.698Z,5.70
2023-11-04T07:54:31.484Z,4.32
2023-11-04T07:55:33.386Z,4.18
2023-11-04T07:56:36.179Z,4.75
2023-11-04T07:57:38.422Z,3.55
2023-11-04T07:58:40.364Z,3.35
2023-11-04T07:59:43.194Z,3.00
2023-11-04T08:00:45.094Z,3.40
2023-11-04T08:01:47.996Z,2.92
2023-11-04T08:02:50.304Z,2.30
2023-11-04T08:03:53.217Z,2.75
2023-11-04T08:04:55.139Z,2.88
2023-11-04T08:05:59.977Z,2.75
2023-11-04T08:07:01.854Z,2.92
2023-11-04T08:08:07.636Z,2.40
2023-11-04T08:09:10.019Z,2.67
2023-11-04T08:10:22.012Z,3.03
2023-11-04T08:11:23.900Z,2.53
2023-11-04T08:12:27.051Z,2.60
2023-11-04T08:13:28.889Z,2.60
2023-11-04T08:14:31.712Z,2.72
2023-11-04T08:15:33.543Z,3.10
2023-11-04T08:16:36.345Z,2.80
2023-11-04T08:17:38.366Z,2.95
2023-11-04T08:18:42.053Z,4.75
2023-11-04T08:19:44.017Z,3.17
2023-11-04T08:20:49.581Z,3.03
2023-11-04T08:21:52.999Z,2.70
2023-11-04T08:22:57.501Z,3.00
2023-11-04T08:23:59.807Z,2.63
2023-11-04T08:25:02.693Z,2.72
2023-11-04T08:26:05.092Z,3.47
2023-11-04T08:27:07.900Z,2.63
2023-11-04T08:28:10.131Z,2.90
2023-11-04T08:29:13.001Z,2.88
2023-11-04T08:30:15.514Z,2.53
2023-11-04T08:31:18.692Z,2.78
2023-11-04T08:32:20.600Z,2.33
2023-11-04T08:33:23.998Z,2.85
2023-11-04T08:34:26.241Z,2.38
2023-11-04T08:35:29.224Z,2.40
2023-11-04T08:36:31.385Z,2.67
2023-11-04T08:37:36.379Z,2.40
2023-11-04T08:38:38.276Z,2.38
2023-11-04T08:39:41.100Z,2.80
2023-11-04T08:40:43.135Z,2.35
2023-11-04T08:41:46.463Z,2.50
2023-11-04T08:42:48.336Z,2.58
2023-11-04T08:43:52.559Z,2.90
2023-11-04T08:44:54.778Z,2.42
2023-11-04T08:45:57.682Z,3.05
2023-11-04T08:46:59.507Z,2.50
2023-11-04T08:48:02.430Z,2.60
2023-11-04T08:49:05.324Z,2.58
2023-11-04T08:50:08.918Z,2.33
2023-11-04T08:51:10.794Z,2.38
2023-11-04T08:52:13.759Z,2.80
2023-11-04T08:53:16.969Z,2.88
2023-11-04T08:54:33.151Z,2.92
2023-11-04T08:55:35.079Z,2.13
2023-11-04T08:56:37.998Z,3.10
2023-11-04T08:57:39.847Z,2.50
2023-11-04T08:58:44.053Z,2.80
2023-11-04T08:59:47.560Z,2.25
2023-11-04T09:00:51.947Z,2.00
2023-11-04T09:01:53.978Z,2.20
2023-11-04T09:02:57.048Z,2.30
2023-11-04T09:04:03.663Z,2.30
2023-11-04T09:05:13.211Z,1.90
2023-11-04T09:06:17.261Z,2.30
2023-11-04T09:07:20.162Z,1.70
2023-11-04T09:08:23.681Z,1.80
2023-11-04T09:09:26.770Z,2.03
2023-11-04T09:10:28.746Z,2.10
2023-11-04T09:11:31.588Z,1.98
2023-11-04T09:12:33.969Z,1.92
2023-11-04T09:13:38.262Z,1.98
2023-11-04T09:14:40.179Z,1.60
2023-11-04T09:15:43.038Z,1.63
2023-11-04T09:16:45.766Z,4.05
2023-11-04T09:17:48.787Z,2.50
2023-11-04T09:18:50.939Z,2.83
2023-11-04T09:19:53.849Z,3.33
2023-11-04T09:20:55.931Z,2.92
2023-11-04T09:21:58.782Z,2.30
2023-11-04T09:23:00.790Z,1.98
2023-11-04T09:24:05.634Z,2.70
2023-11-04T09:25:10.688Z,2.00
2023-11-04T09:26:13.625Z,1.83
2023-11-04T09:27:15.594Z,2.10
2023-11-04T09:28:18.427Z,2.20
2023-11-04T09:29:20.306Z,2.30
2023-11-04T09:30:23.777Z,2.00
2023-11-04T09:31:25.820Z,2.38
2023-11-04T09:32:29.217Z,1.80
2023-11-04T09:33:32.875Z,2.28
2023-11-04T09:34:36.120Z,2.40
2023-11-04T09:35:38.130Z,2.03
2023-11-04T09:36:41.869Z,1.95
2023-11-04T09:37:44.389Z,2.20
2023-11-04T09:38:48.130Z,2.13
2023-11-04T09:39:52.485Z,2.08
2023-11-04T09:40:56.148Z,2.15
2023-11-04T09:41:58.111Z,2.50
2023-11-04T09:43:01.326Z,2.80
2023-11-04T09:44:04.376Z,2.10
2023-11-04T09:45:09.010Z,2.03
2023-11-04T09:46:11.773Z,2.20
2023-11-04T09:47:15.495Z,2.58
2023-11-04T09:48:18.475Z,2.00
2023-11-04T09:49:21.450Z,2.10
2023-11-04T09:50:23.381Z,2.30
2023-11-04T09:51:25.825Z,1.73
2023-11-04T09:52:29.445Z,2.67
2023-11-04T09:53:34.469Z,2.10
2023-11-04T09:54:40.016Z,1.90
2023-11-04T09:55:43.526Z,2.20
2023-11-04T09:56:46.419Z,2.00
2023-11-04T09:57:48.471Z,1.90
2023-11-04T09:58:50.769Z,1.98
2023-11-04T10:00:06.258Z,2.15
2023-11-04T10:01:14.298Z,2.08
2023-11-04T10:02:17.105Z,1.92
2023-11-04T10:03:19.116Z,1.95
2023-11-04T10:04:22.357Z,2.00
2023-11-04T10:05:24.357Z,2.10
2023-11-04T10:06:27.304Z,1.67
2023-11-04T10:07:29.374Z,2.08
2023-11-04T10:08:31.387Z,3.35
2023-11-04T10:09:34.323Z,2.92
2023-11-04T10:10:36.269Z,2.33
2023-11-04T10:11:40.524Z,3.15
2023-11-04T10:12:43.424Z,2.30
2023-11-04T10:13:46.312Z,2.20
2023-11-04T10:14:48.207Z,1.85
2023-11-04T10:15:51.030Z,1.88
2023-11-04T10:16:52.912Z,1.60
2023-11-04T10:17:57.433Z,1.70
2023-11-04T10:18:59.392Z,1.98
2023-11-04T10:20:02.416Z,1.80
2023-11-04T10:21:04.943Z,1.90
2023-11-04T10:22:07.817Z,1.88
2023-11-04T10:23:10.319Z,1.80
2023-11-04T10:24:12.579Z,1.50
2023-11-04T10:25:15.558Z,1.67
2023-11-04T10:26:17.892Z,1.90
2023-11-04T10:27:22.033Z,1.90
2023-11-04T10:28:24.803Z,1.60
2023-11-04T10:29:27.669Z,1.83
2023-11-04T10:30:29.584Z,1.60
2023-11-04T10:31:33.328Z,1.73
2023-11-04T10:32:37.806Z,1.90
2023-11-04T10:33:42.366Z,1.65
2023-11-04T10:34:47.059Z,1.85
2023-11-04T10:35:51.001Z,1.83
2023-11-04T10:36:56.017Z,1.50
2023-11-04T10:38:18.456Z,1.88
2023-11-04T10:39:23.366Z,1.67
2023-11-04T10:40:25.523Z,1.48
2023-11-04T10:41:32.347Z,1.50
2023-11-04T10:42:40.313Z,1.63
2023-11-04T10:43:49.134Z,1.85
2023-11-04T10:44:53.396Z,1.67
2023-11-04T10:46:00.634Z,1.67
2023-11-04T10:47:07.853Z,2.00
2023-11-04T10:48:15.864Z,1.48
2023-11-04T10:49:22.031Z,3.25
2023-11-04T10:50:27.711Z,3.40
2023-11-04T10:51:34.547Z,1.80
2023-11-04T10:52:40.171Z,2.60
2023-11-04T10:53:49.987Z,2.60
2023-11-04T10:55:02.017Z,1.67
2023-11-04T10:56:08.271Z,1.70
2023-11-04T10:57:15.509Z,1.55
2023-11-04T10:58:21.633Z,2.03
2023-11-04T10:59:28.943Z,1.52
2023-11-04T11:00:33.149Z,1.63
2023-11-04T11:01:36.879Z,1.65
2023-11-04T11:02:39.984Z,1.88
2023-11-04T11:03:43.784Z,1.60
2023-11-04T11:04:47.193Z,1.70
2023-11-04T11:05:51.565Z,1.55
2023-11-04T11:06:53.898Z,1.42
2023-11-04T11:07:56.945Z,1.40
2023-11-04T11:09:01.300Z,1.85
2023-11-04T11:10:06.288Z,1.40
2023-11-04T11:11:11.880Z,1.52
2023-11-04T11:12:18.031Z,1.55
2023-11-04T11:13:23.138Z,1.77
2023-11-04T11:14:26.132Z,2.08
2023-11-04T11:15:29.096Z,2.50
2023-11-04T11:16:32.506Z,2.20
2023-11-04T11:17:34.394Z,1.90
2023-11-04T11:18:37.507Z,2.08
2023-11-04T11:19:52.666Z,1.80
2023-11-04T11:20:55.910Z,1.98
2023-11-04T11:21:57.827Z,1.95
2023-11-04T11:23:04.328Z,1.80
2023-11-04T11:24:09.970Z,1.88
2023-11-04T11:25:12.836Z,1.60
2023-11-04T11:26:15.890Z,2.03
2023-11-04T11:27:18.711Z,1.70
2023-11-04T11:28:24.330Z,1.73
2023-11-04T11:29:33.960Z,3.08
2023-11-04T11:30:38.302Z,1.77
2023-11-04T11:31:41.148Z,1.80
2023-11-04T11:32:43.262Z,1.83
2023-11-04T11:33:45.362Z,1.70
2023-11-04T11:34:51.954Z,1.60
2023-11-04T11:35:56.068Z,1.88
2023-11-04T11:37:01.695Z,1.52
2023-11-04T11:38:06.620Z,1.60
2023-11-04T11:39:09.989Z,1.98
2023-11-04T11:40:14.371Z,2.03
2023-11-04T11:41:18.551Z,1.40
2023-11-04T11:42:26.433Z,1.90
2023-11-04T11:43:31.065Z,1.90
2023-11-04T11:44:32.988Z,2.08
2023-11-04T11:45:36.510Z,2.20
2023-11-04T11:46:38.526Z,1.95
2023-11-04T11:47:41.454Z,2.10
2023-11-04T11:48:46.242Z,1.85
2023-11-04T11:49:49.861Z,1.83
2023-11-04T11:50:52.088Z,1.73
2023-11-04T11:51:54.928Z,2.10
2023-11-04T11:52:58.065Z,1.90
2023-11-04T11:54:13.917Z,1.90
2023-11-04T11:55:15.901Z,1.70
2023-11-04T11:56:19.203Z,1.90
2023-11-04T11:57:22.112Z,1.85
2023-11-04T11:58:32.685Z,1.80
2023-11-04T11:59:35.141Z,2.05
2023-11-04T12:00:38.915Z,1.90
2023-11-04T12:01:40.876Z,2.92
2023-11-04T12:02:43.696Z,2.22
2023-11-04T12:03:45.967Z,4.70
2023-11-04T12:04:48.870Z,1.92
2023-11-04T12:05:50.805Z,1.92
2023-11-04T12:06:54.438Z,2.10
2023-11-04T12:07:56.517Z,1.90
2023-11-04T12:08:59.722Z,1.70
2023-11-04T12:10:01.598Z,1.30
2023-11-04T12:11:04.704Z,1.50
2023-11-04T12:12:17.251Z,1.52
2023-11-04T12:13:20.753Z,1.60
2023-11-04T12:14:25.248Z,1.88
2023-11-04T12:15:28.339Z,1.48
2023-11-04T12:16:30.187Z,1.65
2023-11-04T12:17:33.160Z,1.42
2023-11-04T12:18:35.244Z,1.92
2023-11-04T12:19:38.519Z,1.60
2023-11-04T12:20:42.545Z,1.58
2023-11-04T12:21:45.427Z,1.73
2023-11-04T12:22:47.370Z,1.75
2023-11-04T12:23:51.384Z,1.50
2023-11-04T12:24:53.371Z,1.83
2023-11-04T12:25:57.377Z,1.50
2023-11-04T12:27:00.710Z,1.60
2023-11-04T12:28:02.803Z,1.90
2023-11-04T12:29:06.678Z,1.67
2023-11-04T12:30:10.784Z,2.00
2023-11-04T12:31:14.094Z,1.70
2023-11-04T12:32:21.630Z,1.75
2023-11-04T12:33:23.878Z,1.60
2023-11-04T12:34:25.821Z,1.90
2023-11-04T12:35:30.267Z,1.50
2023-11-04T12:36:32.789Z,1.60
2023-11-04T12:37:35.585Z,1.50
2023-11-04T12:38:37.765Z,1.40
2023-11-04T12:39:41.285Z,1.77
2023-11-04T12:40:43.529Z,1.42
2023-11-04T12:41:46.825Z,1.60
2023-11-04T12:42:49.745Z,2.30
2023-11-04T12:43:53.567Z,1.70
2023-11-04T12:44:55.893Z,1.83
2023-11-04T12:46:00.609Z,1.83
2023-11-04T12:47:03.426Z,1.70
2023-11-04T12:48:05.442Z,1.77
2023-11-04T12:49:09.029Z,1.90
2023-11-04T12:50:13.008Z,1.60
2023-11-04T12:51:15.959Z,2.00
2023-11-04T12:52:17.839Z,1.60
2023-11-04T12:53:20.085Z,1.90
2023-11-04T12:54:22.919Z,1.70
2023-11-04T12:55:25.451Z,1.75
2023-11-04T12:56:28.254Z,1.30
2023-11-04T12:57:30.121Z,1.70
2023-11-04T12:58:33.628Z,1.50
2023-11-04T12:59:35.452Z,1.33
2023-11-04T13:02:25.806Z,1.60
2023-11-04T13:03:28.522Z,1.45
2023-11-04T13:04:31.612Z,1.67
2023-11-04T13:05:33.720Z,1.50
2023-11-04T13:06:36.821Z,1.55
2023-11-04T13:07:38.879Z,2.03
2023-11-04T13:08:41.775Z,1.80
2023-11-04T13:09:43.650Z,1.77
2023-11-04T13:10:46.504Z,1.55
2023-11-04T13:11:48.442Z,1.70
2023-11-04T13:12:51.299Z,1.60
2023-11-04T13:13:54.213Z,1.60
2023-11-04T13:14:57.181Z,2.00
2023-11-04T13:15:59.089Z,1.70
2023-11-04T13:17:03.044Z,1.70
2023-11-04T13:18:19.508Z,1.63
2023-11-04T13:19:22.106Z,2.75
2023-11-04T13:20:24.950Z,2.00
2023-11-04T13:21:28.884Z,2.50
2023-11-04T13:22:31.688Z,1.75
2023-11-04T13:23:34.421Z,1.50
2023-11-04T13:24:37.305Z,1.70
2023-11-04T13:25:39.147Z,1.45
2023-11-04T13:26:42.322Z,1.80
2023-11-04T13:27:44.193Z,1.90
2023-11-04T13:28:47.012Z,1.80
2023-11-04T13:29:49.295Z,2.00
2023-11-04T13:30:52.709Z,1.85
2023-11-04T13:31:54.586Z,1.98
2023-11-04T13:32:57.429Z,1.98
2023-11-04T13:34:00.911Z,1.77
2023-11-04T13:35:04.058Z,2.00
2023-11-04T13:36:06.955Z,2.15
2023-11-04T13:37:09.851Z,1.88
2023-11-04T13:38:11.667Z,1.90
2023-11-04T13:39:14.533Z,2.13
2023-11-04T13:40:16.649Z,2.17
2023-11-04T13:41:19.747Z,2.13
2023-11-04T13:42:21.738Z,2.13
2023-11-04T13:43:24.763Z,2.20
2023-11-04T13:44:26.567Z,1.85
2023-11-04T13:45:29.410Z,2.22
2023-11-04T13:46:31.270Z,2.05
2023-11-04T13:47:37.347Z,2.00
2023-11-04T13:48:39.371Z,2.10
2023-11-04T13:49:43.640Z,1.63
2023-11-04T13:50:45.488Z,1.75
2023-11-04T13:51:48.352Z,1.50
2023-11-04T13:52:50.371Z,2.08
2023-11-04T13:54:06.949Z,1.77
2023-11-04T13:55:10.224Z,2.10
2023-11-04T13:56:13.187Z,2.03
2023-11-04T13:57:15.010Z,1.95
2023-11-04T13:58:17.894Z,1.90
2023-11-04T13:59:20.100Z,1.92
2023-11-04T14:00:22.877Z,1.73
2023-11-04T14:01:26.069Z,1.50
2023-11-04T14:02:30.481Z,2.08
2023-11-04T14:03:32.627Z,1.92
2023-11-04T14:04:35.678Z,2.10